Time;durP1;ratioP1;P1;durP2;ratioP2;P2;SDS_P1;SDS_P2;PMS_P1;PMS_P2;Temp;Humidity;BMP_temperature;BMP_pressure;BME280_temperature;BME280_humidity;BME280_pressure;Samples;Min_cycle;Max_cycle;Signal;HPM_P1;HPM_P2
2023/01/19 00:00:07;;;;;;;21.90;5.10;;;;;;;-143.84;77.21;44972.91;5113575;28;20443;-77
2023/01/19 00:02:34;;;;;;;26.97;6.07;;;;;;;-143.84;77.40;45028.13;5113673;28;20496;-78
2023/01/19 00:05:02;;;;;;;17.67;5.10;;;;;;;-143.84;77.60;45018.59;5113504;28;20435;-77
2023/01/19 00:07:30;;;;;;;21.77;4.83;;;;;;;-143.84;77.48;44990.03;5113457;28;20440;-77
2023/01/19 00:09:57;;;;;;;28.83;6.10;;;;;;;-143.84;77.48;45022.41;5113812;28;20479;-78
2023/01/19 00:12:24;;;;;;;24.87;4.50;;;;;;;-143.84;77.54;44990.03;5113809;28;20910;-77
2023/01/19 00:14:53;;;;;;;39.33;5.60;;;;;;;-143.84;77.86;45007.19;5113407;28;20970;-77
2023/01/19 00:17:20;;;;;;;31.03;5.50;;;;;;;-143.84;77.74;44980.53;5113418;28;20478;-77
2023/01/19 00:19:47;;;;;;;13.20;4.07;;;;;;;-143.84;77.83;44976.72;5113307;28;20428;-77
2023/01/19 00:22:15;;;;;;;20.73;5.17;;;;;;;-143.84;77.87;44990.03;5113075;28;20435;-78
2023/01/19 00:24:43;;;;;;;36.63;5.10;;;;;;;-143.84;77.93;45010.97;5113033;28;20446;-78
2023/01/19 00:27:10;;;;;;;28.67;5.03;;;;;;;-143.84;77.92;45001.47;5113184;28;21280;-78
2023/01/19 00:29:37;;;;;;;24.20;6.63;;;;;;;-143.84;77.75;44997.66;5113151;28;20436;-78
2023/01/19 00:32:06;;;;;;;32.50;6.00;;;;;;;-143.84;77.78;45003.38;5113185;28;20435;-78
2023/01/19 00:34:38;;;;;;;32.50;5.10;;;;;;;-143.84;77.71;45026.22;5112980;28;20440;-77
2023/01/19 00:37:06;;;;;;;19.53;5.10;;;;;;;-143.84;77.49;45010.97;5113240;28;20922;-77
2023/01/19 00:39:33;;;;;;;31.37;5.57;;;;;;;-143.84;77.63;45007.19;5113161;28;20437;-78
2023/01/19 00:44:45;;;;;;;26.87;5.17;;;;;;;-143.84;77.41;45007.19;5112763;28;20928;-77
2023/01/19 00:47:14;;;;;;;19.43;5.03;;;;;;;-143.84;77.48;45030.03;5112901;28;20439;-77
2023/01/19 00:49:41;;;;;;;25.20;4.33;;;;;;;-143.84;77.26;45014.78;5112806;28;20444;-78
2023/01/19 00:52:08;;;;;;;21.83;5.67;;;;;;;-143.84;77.26;45039.53;5112745;28;20431;-77
2023/01/19 00:54:35;;;;;;;22.33;4.90;;;;;;;-143.84;77.43;45003.38;5112455;28;20480;-78
2023/01/19 00:57:03;;;;;;;22.13;4.27;;;;;;;-143.84;77.40;45003.38;5112479;28;20477;-78
2023/01/19 00:59:31;;;;;;;20.57;4.73;;;;;;;-143.84;77.62;45010.97;5112919;28;20523;-78
2023/01/19 01:01:58;;;;;;;23.27;5.17;;;;;;;-143.84;77.65;45018.59;5112597;28;20438;-78
2023/01/19 01:04:26;;;;;;;20.30;4.70;;;;;;;-143.84;77.93;44997.66;5112791;28;20842;-78
2023/01/19 01:06:53;;;;;;;14.60;3.97;;;;;;;-143.84;77.93;44991.94;5112861;28;20495;-78
2023/01/19 01:09:20;;;;;;;19.03;4.70;;;;;;;-143.84;77.93;45012.88;5113007;28;20504;-77
2023/01/19 01:11:48;;;;;;;19.87;4.33;;;;;;;-143.84;77.97;44999.56;5112803;28;20476;-77
2023/01/19 01:14:16;;;;;;;25.43;5.43;;;;;;;-143.84;78.11;45030.03;5112317;28;20479;-77
2023/01/19 01:16:43;;;;;;;30.80;4.90;;;;;;;-143.84;78.04;44980.53;5112506;28;20960;-78
2023/01/19 01:19:10;;;;;;;19.83;4.00;;;;;;;-143.84;78.17;44988.13;5112236;28;21020;-78
2023/01/19 01:21:38;;;;;;;27.43;5.47;;;;;;;-143.84;78.42;44982.41;5112647;28;20438;-78
2023/01/19 01:24:06;;;;;;;36.00;6.30;;;;;;;-143.84;78.39;45005.28;5112393;28;20495;-78
2023/01/19 01:26:33;;;;;;;16.57;4.83;;;;;;;-143.84;78.47;44969.09;5112266;28;20436;-78
2023/01/19 01:29:01;;;;;;;19.83;5.83;;;;;;;-143.84;78.39;44982.41;5112116;28;20496;-78
2023/01/19 01:31:28;;;;;;;21.27;5.87;;;;;;;-143.84;78.46;44972.91;5112229;28;20442;-78
2023/01/19 01:33:56;;;;;;;27.30;5.07;;;;;;;-143.84;78.23;44984.31;5113772;28;20457;-78
2023/01/19 01:36:23;;;;;;;21.53;4.80;;;;;;;-143.84;78.23;45005.28;5119114;28;20497;-77
2023/01/19 01:38:52;;;;;;;22.83;4.30;;;;;;;-143.84;78.14;45001.47;5118797;28;20438;-78
2023/01/19 01:41:19;;;;;;;23.67;5.33;;;;;;;-143.84;78.19;44959.56;5118947;28;20451;-78
2023/01/19 01:43:48;;;;;;;23.10;5.10;;;;;;;-143.84;78.31;44971.00;5118863;27;20457;-78
2023/01/19 01:46:16;;;;;;;13.40;4.23;;;;;;;-143.84;78.24;44980.53;5119331;28;20479;-78
2023/01/19 01:48:49;;;;;;;26.97;4.77;;;;;;;-143.84;77.94;45001.47;5119186;28;20809;-78
2023/01/19 01:51:24;;;;;;;22.40;4.50;;;;;;;-143.84;78.19;44971.00;5118908;28;20948;-78
2023/01/19 01:54:01;;;;;;;28.40;5.13;;;;;;;-143.84;78.20;44990.03;5118817;28;20550;-78
2023/01/19 01:56:32;;;;;;;23.80;4.80;;;;;;;-143.84;78.08;45009.09;5118736;28;21013;-78
2023/01/19 01:59:03;;;;;;;45.37;6.10;;;;;;;-143.84;77.91;44990.03;5119056;28;20438;-78
2023/01/19 02:04:16;;;;;;;31.97;5.53;;;;;;;-143.84;78.32;44984.31;5118933;28;20911;-78
2023/01/19 02:15:02;;;;;;;25.23;4.63;;;;;;;-143.84;78.04;44999.56;5118729;27;20421;-78
2023/01/19 02:17:29;;;;;;;15.77;4.27;;;;;;;-143.84;78.00;45018.59;5118538;28;20838;-78
2023/01/19 02:19:58;;;;;;;29.23;5.03;;;;;;;-143.84;77.80;45018.59;5118348;28;20443;-78
2023/01/19 02:22:34;;;;;;;22.13;4.37;;;;;;;-143.84;77.66;45037.66;5118455;28;20453;-78
2023/01/19 02:25:04;;;;;;;26.07;5.57;;;;;;;-143.84;77.71;45028.13;5118492;28;20495;-78
2023/01/19 02:27:32;;;;;;;28.43;7.57;;;;;;;-143.84;77.45;45001.47;5118785;28;20507;-78
2023/01/19 02:30:02;;;;;;;25.07;6.00;;;;;;;-143.84;77.20;45041.44;5118264;28;20874;-78
2023/01/19 02:32:29;;;;;;;27.53;4.60;;;;;;;-143.84;77.13;45016.69;5117935;28;20493;-78
2023/01/19 02:34:56;;;;;;;18.97;4.97;;;;;;;-143.84;77.09;45050.97;5116621;28;21022;-78
2023/01/19 02:37:25;;;;;;;28.93;6.30;;;;;;;-143.84;76.96;45047.16;5116629;28;20524;-78
2023/01/19 02:39:55;;;;;;;20.63;5.93;;;;;;;-143.84;77.06;45052.88;5118610;28;20520;-77
2023/01/19 02:42:27;;;;;;;26.70;4.90;;;;;;;-143.84;77.04;45079.53;5118380;28;20556;-77
2023/01/19 02:44:56;;;;;;;28.23;5.40;;;;;;;-143.84;77.17;45062.41;5117997;28;20439;-77
2023/01/19 02:47:23;;;;;;;35.67;6.27;;;;;;;-143.84;77.29;45031.94;5113981;28;20438;-78
2023/01/19 02:49:56;;;;;;;31.43;5.00;;;;;;;-143.84;77.18;45052.88;5115200;28;20505;-78
2023/01/19 02:52:23;;;;;;;24.63;5.40;;;;;;;-143.84;77.15;45028.13;5115453;28;20536;-78
2023/01/19 02:55:02;;;;;;;20.43;5.20;;;;;;;-143.84;77.23;45047.16;5114618;28;20902;-78
2023/01/19 02:57:53;;;;;;;22.53;5.00;;;;;;;-143.84;77.35;45050.97;5115215;28;20547;-77
2023/01/19 03:00:33;;;;;;;24.97;5.70;;;;;;;-143.84;77.62;45028.13;5114879;28;20438;-78
2023/01/19 03:03:20;;;;;;;62.47;6.00;;;;;;;-143.84;77.73;45033.84;5114764;28;20433;-78
2023/01/19 03:06:02;;;;;;;28.50;5.97;;;;;;;-143.84;77.86;45026.22;5114830;28;20859;-77
2023/01/19 03:08:43;;;;;;;30.97;4.90;;;;;;;-143.84;78.20;45018.59;5114940;28;20428;-78
2023/01/19 03:11:12;;;;;;;21.73;6.03;;;;;;;-143.84;78.35;44991.94;5114669;28;20435;-78
2023/01/19 03:13:49;;;;;;;32.13;6.03;;;;;;;-143.84;78.52;45016.69;5114865;28;20919;-77
2023/01/19 03:16:21;;;;;;;36.77;7.03;;;;;;;-143.84;78.58;45009.09;5114661;28;20454;-77
2023/01/19 03:18:53;;;;;;;32.27;5.67;;;;;;;-143.84;78.57;45003.38;5114557;28;20439;-77
2023/01/19 03:21:25;;;;;;;24.70;5.20;;;;;;;-143.84;78.68;45012.88;5114520;28;20513;-77
2023/01/19 03:23:55;;;;;;;32.63;5.30;;;;;;;-143.84;78.71;45003.38;5114378;28;20425;-78
2023/01/19 03:26:28;;;;;;;14.07;4.83;;;;;;;-143.84;78.59;44995.75;5114518;28;20437;-78
2023/01/19 03:28:58;;;;;;;24.77;4.93;;;;;;;-143.84;78.74;44969.09;5114625;28;20521;-78
2023/01/19 03:31:28;;;;;;;31.80;6.03;;;;;;;-143.84;78.57;45009.09;5114539;28;20435;-77
2023/01/19 03:33:59;;;;;;;49.23;7.90;;;;;;;-143.84;78.90;44931.00;5114152;28;20438;-77
2023/01/19 03:36:31;;;;;;;35.87;6.60;;;;;;;-143.84;78.73;44988.13;5114559;28;20496;-78
2023/01/19 03:39:01;;;;;;;28.23;6.07;;;;;;;-143.84;78.70;44967.19;5114294;28;20492;-77
2023/01/19 03:41:30;;;;;;;26.83;5.33;;;;;;;-143.84;78.75;45007.19;5114163;28;20834;-77
2023/01/19 03:44:00;;;;;;;37.57;6.30;;;;;;;-143.84;78.83;44980.53;5114191;28;20493;-82
2023/01/19 03:46:28;;;;;;;27.10;6.43;;;;;;;-143.84;79.05;44944.34;5113968;28;20525;-81
2023/01/19 03:48:57;;;;;;;32.23;5.77;;;;;;;-143.84;78.76;44961.47;5114178;28;20927;-81
2023/01/19 03:51:24;;;;;;;28.43;5.20;;;;;;;-143.84;79.02;44972.91;5114370;28;20477;-81
2023/01/19 03:53:52;;;;;;;33.60;6.50;;;;;;;-143.84;79.01;44948.16;5113509;28;20475;-81
2023/01/19 03:56:20;;;;;;;30.97;6.13;;;;;;;-143.84;79.05;44969.09;5114027;28;20773;-81
2023/01/19 03:58:48;;;;;;;32.63;5.30;;;;;;;-143.84;79.16;44957.66;5113082;28;20444;-81
2023/01/19 04:01:21;;;;;;;34.30;6.77;;;;;;;-143.84;79.20;44932.91;5114156;28;20517;-81
2023/01/19 04:03:48;;;;;;;34.77;5.80;;;;;;;-143.84;78.99;44978.63;5113542;28;20794;-81
2023/01/19 04:06:16;;;;;;;40.77;6.77;;;;;;;-143.84;78.99;44953.88;5113943;28;20505;-81
2023/01/19 04:08:43;;;;;;;31.53;5.10;;;;;;;-143.84;78.97;44953.88;5113553;28;20499;-81
2023/01/19 04:11:11;;;;;;;44.87;6.60;;;;;;;-143.84;79.12;44929.09;5113351;28;20443;-81
2023/01/19 04:13:38;;;;;;;32.27;6.17;;;;;;;-143.84;79.32;44953.88;5113134;28;20932;-80
2023/01/19 04:16:06;;;;;;;29.80;6.00;;;;;;;-143.84;79.30;44915.78;5113137;28;20973;-81
2023/01/19 04:18:35;;;;;;;49.87;7.10;;;;;;;-143.84;79.74;44921.50;5113482;28;20850;-80
2023/01/19 04:21:04;;;;;;;25.53;6.83;;;;;;;-143.84;79.56;44946.25;5112999;28;20449;-80
2023/01/19 04:23:31;;;;;;;37.70;7.43;;;;;;;-143.84;79.62;44911.97;5113317;28;20851;-80
2023/01/19 04:25:59;;;;;;;32.17;6.40;;;;;;;-143.84;79.85;44900.53;5112881;28;20467;-80
2023/01/19 04:28:26;;;;;;;32.60;6.60;;;;;;;-143.84;79.89;44887.22;5113454;28;20436;-81
2023/01/19 04:30:54;;;;;;;51.50;7.30;;;;;;;-143.84;79.88;44908.16;5112720;28;20859;-81
2023/01/19 04:33:22;;;;;;;34.90;6.03;;;;;;;-143.84;80.02;44902.44;5113050;28;20447;-80
2023/01/19 04:35:51;;;;;;;27.43;5.27;;;;;;;-143.84;80.16;44877.69;5112697;28;20816;-80
2023/01/19 04:38:19;;;;;;;25.30;6.20;;;;;;;-143.84;80.29;44866.28;5110838;28;20524;-81
2023/01/19 04:40:47;;;;;;;27.17;5.20;;;;;;;-143.84;80.21;44826.28;5112309;28;20794;-80
2023/01/19 04:43:14;;;;;;;28.20;7.37;;;;;;;-143.84;80.35;44824.38;5113032;28;20481;-81
2023/01/19 04:45:43;;;;;;;20.93;5.97;;;;;;;-143.84;80.41;44830.09;5113062;28;20428;-81
2023/01/19 04:48:10;;;;;;;31.50;5.30;;;;;;;-143.84;80.28;44852.94;5112690;28;20447;-82
2023/01/19 04:50:37;;;;;;;34.33;7.00;;;;;;;-143.84;80.31;44851.03;5112442;28;20960;-81
2023/01/19 04:53:06;;;;;;;37.33;5.73;;;;;;;-143.84;80.09;44866.28;5112610;28;20439;-82
2023/01/19 04:55:34;;;;;;;49.50;6.73;;;;;;;-143.84;80.13;44860.56;5112642;28;20478;-82
2023/01/19 04:58:01;;;;;;;26.43;6.10;;;;;;;-143.84;80.13;44873.88;5112053;28;20471;-82
2023/01/19 05:00:28;;;;;;;38.90;6.50;;;;;;;-143.84;80.08;44881.50;5112706;28;20799;-82
2023/01/19 05:02:55;;;;;;;30.33;6.40;;;;;;;-143.84;79.85;44892.94;5112276;28;20432;-78
2023/01/19 05:05:23;;;;;;;37.70;7.07;;;;;;;-143.84;80.04;44887.22;5112491;28;20448;-80
2023/01/19 05:07:50;;;;;;;34.80;6.07;;;;;;;-143.84;79.92;44854.84;5112410;28;20439;-83
2023/01/19 05:10:22;;;;;;;31.07;5.10;;;;;;;-143.84;79.71;44906.25;5118236;28;20552;-82
2023/01/19 05:12:50;;;;;;;27.17;6.67;;;;;;;-143.84;79.98;44889.13;5114597;28;20920;-81
2023/01/19 05:15:17;;;;;;;21.20;5.50;;;;;;;-143.84;79.93;44868.19;5112142;28;20485;-81
2023/01/19 05:17:44;;;;;;;30.97;5.93;;;;;;;-143.84;79.81;44908.16;5112140;28;20503;-79
2023/01/19 05:20:13;;;;;;;31.37;5.43;;;;;;;-143.84;79.85;44862.47;5111928;28;20855;-80
2023/01/19 05:22:40;;;;;;;32.67;5.80;;;;;;;-143.84;79.84;44908.16;5112238;28;20429;-82
2023/01/19 05:25:08;;;;;;;27.03;5.33;;;;;;;-143.84;79.80;44885.31;5112008;28;20924;-79
2023/01/19 05:27:37;;;;;;;33.53;7.30;;;;;;;-143.84;79.65;44883.41;5111741;28;20529;-81
2023/01/19 05:30:06;;;;;;;35.73;7.00;;;;;;;-143.84;79.55;44908.16;5111876;28;20879;-80
2023/01/19 05:32:33;;;;;;;34.83;6.87;;;;;;;-143.84;79.68;44900.53;5112301;28;20424;-81
2023/01/19 05:35:00;;;;;;;31.20;6.23;;;;;;;-143.84;79.70;44913.88;5111488;28;20435;-80
2023/01/19 05:37:27;;;;;;;34.80;7.33;;;;;;;-143.84;79.74;44932.91;5111654;28;20467;-80
2023/01/19 05:39:54;;;;;;;20.33;5.70;;;;;;;-143.84;79.73;44910.06;5111616;28;20488;-80
2023/01/19 05:42:22;;;;;;;39.17;7.07;;;;;;;-143.84;79.82;44908.16;5111435;28;20488;-78
2023/01/19 05:44:50;;;;;;;28.30;5.60;;;;;;;-143.84;79.58;44955.75;5111164;28;20464;-82
2023/01/19 05:47:17;;;;;;;34.43;7.00;;;;;;;-143.84;78.94;44999.56;5110168;28;20443;-81
2023/01/19 05:49:45;;;;;;;22.10;6.03;;;;;;;-143.84;79.74;44921.50;5111828;28;20463;-83
2023/01/19 05:52:12;;;;;;;26.90;5.93;;;;;;;-143.84;81.03;44807.25;5112101;28;20484;-82
2023/01/19 05:54:39;;;;;;;35.43;6.20;;;;;;;-143.84;81.81;44645.41;5112047;28;20478;-82
2023/01/19 05:57:06;;;;;;;44.73;5.97;;;;;;;-143.84;81.98;44603.53;5111862;28;20984;-81
2023/01/19 05:59:34;;;;;;;29.27;6.10;;;;;;;-143.84;82.09;44534.97;5111485;28;20451;-79
2023/01/19 06:02:02;;;;;;;37.50;7.60;;;;;;;-143.84;82.31;44460.72;5111763;28;20443;-78
2023/01/19 06:04:29;;;;;;;43.97;7.23;;;;;;;-143.84;82.55;44432.19;5111550;28;20439;-78
2023/01/19 06:06:56;;;;;;;45.00;7.60;;;;;;;-143.84;82.81;44295.09;5112159;28;20428;-78
2023/01/19 06:09:24;;;;;;;30.47;6.50;;;;;;;-143.84;82.58;44295.09;5111473;28;20562;-78
2023/01/19 06:11:53;;;;;;;35.60;6.67;;;;;;;-143.84;82.61;44378.88;5111930;28;20431;-78
2023/01/19 06:14:20;;;;;;;36.20;7.40;;;;;;;-143.84;82.69;44325.56;5111401;28;20470;-78
2023/01/19 06:16:47;;;;;;;38.70;6.40;;;;;;;-143.84;82.43;44342.69;5111900;28;20427;-78
2023/01/19 06:19:16;;;;;;;33.63;6.13;;;;;;;-143.84;82.24;44367.44;5111352;28;20485;-78
2023/01/19 06:21:48;;;;;;;23.63;6.40;;;;;;;-143.84;82.38;44300.81;5114821;28;20492;-78
2023/01/19 06:24:16;;;;;;;35.37;6.70;;;;;;;-143.84;82.29;44369.34;5115472;28;20438;-78
2023/01/19 06:26:43;;;;;;;36.13;5.53;;;;;;;-143.84;82.14;44426.47;5115068;28;20433;-78
2023/01/19 06:29:11;;;;;;;30.37;6.97;;;;;;;-143.84;81.90;44435.97;5115086;28;20470;-79
2023/01/19 06:31:38;;;;;;;46.87;8.50;;;;;;;-143.84;81.85;44504.53;5115454;28;20518;-79
2023/01/19 06:34:05;;;;;;;24.87;7.63;;;;;;;-143.84;81.93;44437.88;5115289;28;20441;-78
2023/01/19 06:36:34;;;;;;;39.63;7.87;;;;;;;-143.84;81.94;44430.28;5115211;28;20949;-78
2023/01/19 06:39:04;;;;;;;34.87;7.73;;;;;;;-143.84;82.21;44352.22;5115231;28;20470;-79
2023/01/19 06:41:32;;;;;;;28.97;5.87;;;;;;;-143.84;81.92;44439.78;5115046;28;20435;-78
2023/01/19 06:43:59;;;;;;;40.60;6.70;;;;;;;-143.84;82.00;44460.72;5115063;28;20450;-79
2023/01/19 06:46:27;;;;;;;29.03;5.93;;;;;;;-143.84;81.45;44508.31;5114808;28;20438;-82
2023/01/19 06:48:54;;;;;;;35.63;7.27;;;;;;;-143.84;81.21;44571.16;5114829;28;20867;-82
2023/01/19 06:51:22;;;;;;;40.93;6.40;;;;;;;-143.84;81.27;44586.38;5114928;28;20460;-82
2023/01/19 06:53:51;;;;;;;25.83;7.07;;;;;;;-143.84;81.53;44550.22;5114510;28;20591;-81
2023/01/19 06:56:18;;;;;;;44.67;9.10;;;;;;;-143.84;81.92;44453.13;5114880;28;20431;-81
2023/01/19 06:58:47;;;;;;;35.00;7.77;;;;;;;-143.84;82.10;44382.69;5114857;28;20474;-79
2023/01/19 07:01:14;;;;;;;30.97;7.07;;;;;;;-143.84;82.44;44344.59;5114842;28;20431;-78
2023/01/19 07:03:41;;;;;;;38.43;6.60;;;;;;;-143.84;82.64;44272.25;5114652;28;20439;-78
2023/01/19 07:06:08;;;;;;;45.80;7.30;;;;;;;-143.84;82.50;44352.22;5114860;28;20435;-79
2023/01/19 07:08:36;;;;;;;38.13;7.63;;;;;;;-143.84;82.50;44249.41;5114333;28;20431;-78
2023/01/19 07:11:07;;;;;;;34.17;7.40;;;;;;;-143.84;82.80;44245.59;5114510;28;20443;-78
2023/01/19 07:13:35;;;;;;;33.23;6.60;;;;;;;-143.84;83.10;44171.38;5114341;28;20443;-79
2023/01/19 07:16:05;;;;;;;29.80;7.30;;;;;;;-143.84;82.87;44125.69;5114850;28;20991;-78
2023/01/19 07:18:32;;;;;;;35.17;7.97;;;;;;;-143.84;82.87;44148.53;5114175;28;20852;-79
2023/01/19 07:20:59;;;;;;;33.53;6.83;;;;;;;-143.84;82.55;44236.09;5114162;28;20449;-78
2023/01/19 07:23:29;;;;;;;40.63;6.83;;;;;;;-143.84;82.63;44196.13;5114063;28;20447;-79
2023/01/19 07:25:56;;;;;;;30.07;6.23;;;;;;;-143.84;82.13;44335.09;5114474;28;20441;-79
2023/01/19 07:28:25;;;;;;;40.67;6.50;;;;;;;-143.84;82.17;44308.44;5113883;28;20434;-79
2023/01/19 07:30:52;;;;;;;51.03;8.47;;;;;;;-143.84;81.84;44399.81;5113721;28;20439;-79
2023/01/19 07:33:20;;;;;;;29.27;6.37;;;;;;;-143.84;81.85;44451.22;5113047;28;20446;-79
2023/01/19 07:35:48;;;;;;;40.33;7.27;;;;;;;-143.84;81.46;44512.13;5114555;28;20833;-78
2023/01/19 07:38:16;;;;;;;36.70;5.80;;;;;;;-143.84;81.33;44569.25;5113651;28;20487;-79
2023/01/19 07:40:44;;;;;;;44.70;7.10;;;;;;;-143.84;80.87;44611.13;5114048;28;20439;-78
2023/01/19 07:43:11;;;;;;;39.87;5.23;;;;;;;-143.84;80.78;44649.22;5113583;28;20433;-78
2023/01/19 07:45:40;;;;;;;37.33;7.57;;;;;;;-143.84;80.51;44719.66;5113861;28;20430;-78
2023/01/19 07:48:07;;;;;;;33.07;5.80;;;;;;;-143.84;80.37;44689.19;5113623;28;20431;-79
2023/01/19 07:50:34;;;;;;;40.50;7.33;;;;;;;-143.84;80.39;44713.94;5113582;28;20488;-78
2023/01/19 07:53:05;;;;;;;34.23;5.80;;;;;;;-143.84;80.12;44742.50;5113932;28;20867;-78
2023/01/19 07:55:32;;;;;;;43.83;6.93;;;;;;;-143.84;79.92;44771.06;5113527;28;20904;-79
2023/01/19 07:58:00;;;;;;;44.80;6.00;;;;;;;-143.84;79.33;44832.00;5113611;28;20464;-79
2023/01/19 08:00:27;;;;;;;28.17;6.23;;;;;;;-143.84;78.65;44877.69;5113294;28;20435;-79
2023/01/19 08:02:59;;;;;;;33.00;6.90;;;;;;;-143.84;78.21;44957.66;5113154;28;20488;-79
2023/01/19 08:05:28;;;;;;;31.87;5.97;;;;;;;-143.84;77.81;44959.56;5113225;28;20431;-79
2023/01/19 08:07:56;;;;;;;26.40;5.33;;;;;;;-143.84;77.86;44963.38;5113490;28;20432;-78
2023/01/19 08:10:25;;;;;;;38.50;6.60;;;;;;;-143.84;77.33;44978.63;5113122;28;20446;-79
2023/01/19 08:12:53;;;;;;;35.20;6.40;;;;;;;-143.84;77.37;44969.09;5113021;28;20479;-79
2023/01/19 08:15:22;;;;;;;28.87;6.70;;;;;;;-143.84;76.97;44972.91;5113078;28;20447;-78
2023/01/19 08:17:57;;;;;;;22.97;6.43;;;;;;;-143.84;76.63;45026.22;5113205;28;20938;-79
2023/01/19 08:20:24;;;;;;;27.17;6.23;;;;;;;-143.84;76.10;45026.22;5113276;28;20772;-79
2023/01/19 08:22:58;;;;;;;32.13;5.93;;;;;;;-143.84;76.10;45047.16;5113274;28;20435;-79
2023/01/19 08:25:27;;;;;;;53.80;6.40;;;;;;;-143.84;75.73;45045.25;5112860;28;20476;-79
2023/01/19 08:27:56;;;;;;;38.10;6.00;;;;;;;-143.84;75.94;45047.16;5112942;28;20433;-79
2023/01/19 08:30:25;;;;;;;26.20;5.33;;;;;;;-143.84;76.27;45052.88;5112970;28;20435;-79
2023/01/19 08:32:56;;;;;;;25.00;5.70;;;;;;;-143.84;76.42;45041.44;5113011;28;20440;-79
2023/01/19 08:35:25;;;;;;;44.17;4.93;;;;;;;-143.84;76.72;45043.34;5112735;28;20486;-79
2023/01/19 08:37:52;;;;;;;31.83;6.73;;;;;;;-143.84;76.60;45047.16;5112479;28;20940;-78
2023/01/19 08:40:20;;;;;;;33.07;5.67;;;;;;;-143.84;76.26;45028.13;5112594;28;20439;-79
2023/01/19 08:42:47;;;;;;;23.83;5.27;;;;;;;-143.84;76.53;45049.06;5112936;28;20850;-79
2023/01/19 08:45:14;;;;;;;34.10;6.60;;;;;;;-143.84;76.36;45052.88;5111717;28;20995;-79
2023/01/19 08:47:41;;;;;;;30.00;6.80;;;;;;;-143.84;75.83;45079.53;5112420;28;20437;-79
2023/01/19 08:50:10;;;;;;;42.67;6.43;;;;;;;-143.84;75.81;45085.25;5111897;28;20444;-79
2023/01/19 08:52:39;;;;;;;33.60;6.37;;;;;;;-143.84;75.68;45081.44;5112338;28;20519;-79
2023/01/19 08:55:08;;;;;;;25.10;5.30;;;;;;;-143.84;75.20;45066.22;5111263;28;20559;-79
2023/01/19 08:57:35;;;;;;;28.67;5.83;;;;;;;-143.84;74.83;45062.41;5110571;28;20492;-81
2023/01/19 09:00:03;;;;;;;33.27;7.47;;;;;;;-143.84;74.64;45083.34;5111898;28;20728;-81
2023/01/19 09:02:30;;;;;;;25.87;5.30;;;;;;;-143.84;74.89;45056.69;5112633;28;20425;-81
2023/01/19 09:04:57;;;;;;;30.30;5.40;;;;;;;-143.84;73.76;45117.63;5111982;28;20880;-81
2023/01/19 09:07:24;;;;;;;43.80;7.20;;;;;;;-143.84;73.65;45106.19;5111980;28;20439;-81
2023/01/19 09:09:53;;;;;;;30.60;5.27;;;;;;;-143.84;73.13;45106.19;5111932;28;20439;-81
2023/01/19 09:12:20;;;;;;;49.23;6.23;;;;;;;-143.84;72.20;45108.09;5112125;28;20447;-81
2023/01/19 09:14:47;;;;;;;34.23;6.23;;;;;;;-143.84;71.37;45119.53;5112091;28;20433;-81
2023/01/19 09:17:16;;;;;;;56.43;10.87;;;;;;;-143.84;71.57;45148.09;5111789;28;20443;-81
2023/01/19 09:19:44;;;;;;;36.10;4.93;;;;;;;-143.84;70.85;45098.56;5111562;28;20475;-81
2023/01/19 09:22:11;;;;;;;31.13;6.33;;;;;;;-143.84;70.12;45159.50;5111981;28;20952;-81
2023/01/19 09:24:38;;;;;;;30.80;6.87;;;;;;;-143.84;70.29;45132.84;5111669;28;20471;-81
2023/01/19 09:27:06;;;;;;;22.83;5.67;;;;;;;-143.84;70.15;45123.34;5110263;28;20449;-81
2023/01/19 09:29:35;;;;;;;47.57;5.90;;;;;;;-143.84;70.12;45129.03;5110460;28;20497;-81
2023/01/19 09:32:02;;;;;;;42.33;7.97;;;;;;;-143.84;70.54;45121.44;5112249;28;20785;-81
2023/01/19 09:34:30;;;;;;;27.10;6.30;;;;;;;-143.84;70.44;45136.66;5111992;28;20445;-81
2023/01/19 09:36:57;;;;;;;31.80;6.00;;;;;;;-143.84;69.60;45110.00;5111734;28;20452;-81
2023/01/19 09:39:25;;;;;;;23.43;6.00;;;;;;;-143.84;70.09;45117.63;5111557;28;20474;-81
2023/01/19 09:42:00;;;;;;;54.70;6.77;;;;;;;-143.84;69.29;45136.66;5111902;28;20448;-81
2023/01/19 09:44:32;;;;;;;28.17;5.17;;;;;;;-143.84;69.81;45117.63;5111964;28;20430;-81
2023/01/19 09:47:02;;;;;;;29.20;7.00;;;;;;;-143.84;68.54;45142.38;5111944;28;20427;-81
2023/01/19 09:49:35;;;;;;;26.80;5.90;;;;;;;-143.84;69.17;45134.75;5111583;28;20434;-81
2023/01/19 09:52:03;;;;;;;44.23;6.60;;;;;;;-143.84;68.36;45144.28;5111507;28;20939;-81
2023/01/19 09:54:42;;;;;;;33.70;6.23;;;;;;;-143.84;67.86;45142.38;5111628;28;20485;-81
2023/01/19 09:57:11;;;;;;;47.80;5.90;;;;;;;-143.84;67.79;45119.53;5115962;28;20858;-81
2023/01/19 09:59:42;;;;;;;38.17;6.27;;;;;;;-143.84;67.79;45117.63;5115607;28;20564;-82
2023/01/19 10:02:28;;;;;;;48.67;7.77;;;;;;;-143.84;67.47;45123.34;5113804;28;20447;-80
2023/01/19 10:05:00;;;;;;;35.87;6.10;;;;;;;-143.84;66.67;45130.94;5113773;28;20449;-80
2023/01/19 10:07:42;;;;;;;37.17;6.30;;;;;;;-143.84;64.99;45132.84;5116149;28;20442;-80
2023/01/19 10:10:21;;;;;;;30.40;6.43;;;;;;;-143.84;64.48;45134.75;5115920;28;20526;-80
2023/01/19 10:13:12;;;;;;;32.20;6.17;;;;;;;-143.84;62.66;45138.56;5115830;28;20408;-80
2023/01/19 10:15:52;;;;;;;30.50;7.03;;;;;;;-143.84;62.70;45134.75;5115616;28;20446;-80
2023/01/19 10:18:24;;;;;;;28.67;5.73;;;;;;;-143.84;60.82;45138.56;5115682;28;20445;-80
2023/01/19 10:20:56;;;;;;;34.63;6.43;;;;;;;-143.84;59.98;45127.13;5115587;28;20442;-80
2023/01/19 10:23:35;;;;;;;44.17;7.00;;;;;;;-143.84;60.10;45121.44;5115852;28;20431;-80
2023/01/19 10:26:09;;;;;;;38.80;5.73;;;;;;;-143.84;58.87;45121.44;5115276;28;20936;-80
2023/01/19 10:28:38;;;;;;;31.30;6.80;;;;;;;-143.84;57.43;45142.38;5115388;28;20427;-80
2023/01/19 10:31:08;;;;;;;37.20;7.03;;;;;;;-143.84;57.50;45119.53;5115695;28;20514;-79
2023/01/19 10:33:36;;;;;;;35.50;6.87;;;;;;;-143.84;58.62;45146.19;5115536;28;20454;-80
2023/01/19 10:36:05;;;;;;;43.77;6.40;;;;;;;-143.84;56.15;45106.19;5115666;28;20427;-80
2023/01/19 10:38:35;;;;;;;33.50;6.63;;;;;;;-143.84;56.45;45121.44;5114883;28;20945;-77
2023/01/19 10:41:07;;;;;;;33.97;7.30;;;;;;;-143.84;55.37;45117.63;5115094;28;20439;-77
2023/01/19 10:43:40;;;;;;;30.53;6.67;;;;;;;-143.84;54.50;45115.72;5115193;28;20936;-77
2023/01/19 10:46:28;;;;;;;28.90;5.27;;;;;;;-143.84;54.08;45117.63;5115524;28;20439;-76
2023/01/19 10:48:56;;;;;;;25.50;5.30;;;;;;;-143.84;54.75;45129.03;5114757;28;20844;-77
2023/01/19 10:51:23;;;;;;;25.47;5.60;;;;;;;-143.84;55.31;45140.47;5114851;28;20658;-76
2023/01/19 10:53:59;;;;;;;28.53;5.53;;;;;;;-143.84;55.28;45111.91;5114129;28;20474;-76
2023/01/19 10:56:31;;;;;;;34.17;5.50;;;;;;;-143.84;54.41;45134.75;5115052;28;20427;-77
2023/01/19 10:59:00;;;;;;;28.33;4.93;;;;;;;-143.84;54.33;45130.94;5114507;28;20474;-76
2023/01/19 11:01:34;;;;;;;25.43;4.97;;;;;;;-143.84;54.75;45132.84;5114573;28;20439;-76
2023/01/19 11:04:19;;;;;;;24.47;5.40;;;;;;;-143.84;55.25;45121.44;5114860;28;20508;-76
2023/01/19 11:06:46;;;;;;;31.33;6.00;;;;;;;-143.84;54.06;45119.53;5113152;28;20439;-76
2023/01/19 11:09:17;;;;;;;33.20;5.67;;;;;;;-143.84;53.84;45132.84;5114622;28;20987;-76
2023/01/19 11:11:50;;;;;;;43.77;6.70;;;;;;;-143.84;54.10;45108.09;5114480;28;20431;-76
2023/01/19 11:14:23;;;;;;;27.20;5.70;;;;;;;-143.84;54.23;45123.34;5114286;28;20495;-76
2023/01/19 11:16:54;;;;;;;33.87;5.73;;;;;;;-143.84;53.21;45132.84;5114313;28;20929;-77
2023/01/19 11:19:26;;;;;;;37.33;7.23;;;;;;;-143.84;53.05;45123.34;5114716;28;20504;-77
2023/01/19 11:22:08;;;;;;;32.10;6.03;;;;;;;-143.84;53.61;45146.19;5114364;28;20435;-80
2023/01/19 11:24:38;;;;;;;29.07;6.47;;;;;;;-143.84;52.21;45129.03;5114324;28;20435;-80
2023/01/19 11:27:06;;;;;;;17.20;4.70;;;;;;;-143.84;52.74;45110.00;5114297;28;20492;-80
2023/01/19 11:29:33;;;;;;;40.70;5.30;;;;;;;-143.84;52.55;45130.94;5114184;28;20488;-80
2023/01/19 11:32:12;;;;;;;20.73;4.70;;;;;;;-143.84;52.67;45125.22;5114221;28;20897;-80